LTBI/ESK METAR and TAF weather

Enter ICAO airport designator
Station Type Date Time Source
LTBI METAR 2020/10/22 03:50 UTC NOAA

LTBI 220350Z 00000KT CAVOK 07/06 Q1024 NOSIG RMK RWY08 00000KT


Station Type Date Time Source
LTBI Decoded METAR 2020/10/22 03:50 UTC NOAA

Eskisehir, Turkey (LTBI) 39-47N 030-34E 785M
Oct 21, 2020 - 11:50 PM EDT / 2020.10.22 0350 UTC
Wind: Calm:0
Visibility: greater than 7 mile(s):0
Temperature: 44 F (7 C)
Dew Point: 42 F (6 C)
Relative Humidity: 93%
Pressure (altimeter): 30.24 in. Hg (1024 hPa)
ob: LTBI 220350Z 00000KT CAVOK 07/06 Q1024 NOSIG RMK RWY08 00000KT
cycle: 4

Station Type Date Time Source
LTBI TAF 2012/05/11 09:09 UTC NOAA

TAF LTBI 110740Z 1109/1121 VRB02KT 6000 -SHRA BKN030 BKN090
TEMPO 1112/1116 33015KT 4000 -TSRA FEW025CB BKN030

Example: see airport list